Time;durP1;ratioP1;P1;durP2;ratioP2;P2;SDS_P1;SDS_P2;PMS_P1;PMS_P2;Temp;Humidity;BMP_temperature;BMP_pressure;BME280_temperature;BME280_humidity;BME280_pressure;Samples;Min_cycle;Max_cycle;Signal;HPM_P1;HPM_P2
2022/10/18 00:00:30;;;;;;;;;18.00;15.00;;;;;;;;5067792;27;47808;-76
2022/10/18 00:02:55;;;;;;;;;20.67;16.33;;;;;;;;5058153;28;45834;-76
2022/10/18 00:05:20;;;;;;;;;19.67;17.00;;;;;;;;5075549;27;45545;-78
2022/10/18 00:07:46;;;;;;;;;20.33;18.67;;;;;;;;5067111;28;46405;-76
2022/10/18 00:10:11;;;;;;;;;20.67;19.33;;;;;;;;5069304;27;46311;-77
2022/10/18 00:12:36;;;;;;;;;19.33;19.33;;;;;;;;5073972;28;45378;-77
2022/10/18 00:15:03;;;;;;;;;16.67;16.67;;;;;;;;5079114;27;45394;-77
2022/10/18 00:17:28;;;;;;;;;21.33;17.33;;;;;;;;5044121;27;46292;-76
2022/10/18 00:19:54;;;;;;;;;24.00;18.00;;;;;;;;5083023;27;45638;-75
2022/10/18 00:22:19;;;;;;;;;21.00;17.00;;;;;;;;5060814;28;45920;-76
2022/10/18 00:24:44;;;;;;;;;20.33;19.00;;;;;;;;5079290;27;45849;-76
2022/10/18 00:27:09;;;;;;;;;20.33;19.33;;;;;;;;5060622;28;45414;-77
2022/10/18 00:29:35;;;;;;;;;16.67;15.67;;;;;;;;5073049;27;45372;-76
2022/10/18 00:32:00;;;;;;;;;18.00;17.00;;;;;;;;5052126;28;45831;-75
2022/10/18 00:34:25;;;;;;;;;23.33;18.33;;;;;;;;5043210;28;45545;-76
2022/10/18 00:36:51;;;;;;;;;25.67;20.00;;;;;;;;5036897;28;45746;-77
2022/10/18 00:39:17;;;;;;;;;22.00;15.67;;;;;;;;5059829;28;46127;-77
2022/10/18 00:41:42;;;;;;;;;22.00;19.33;;;;;;;;5043281;28;45842;-77
2022/10/18 00:44:10;;;;;;;;;21.00;18.67;;;;;;;;5031695;28;45590;-77
2022/10/18 00:46:37;;;;;;;;;18.67;16.33;;;;;;;;5055241;28;45571;-78
2022/10/18 00:49:08;;;;;;;;;19.33;17.67;;;;;;;;5041896;28;48618;-78
2022/10/18 00:51:37;;;;;;;;;18.67;17.67;;;;;;;;5049096;28;45485;-78
2022/10/18 00:54:02;;;;;;;;;22.67;18.00;;;;;;;;5050090;28;45526;-79
2022/10/18 00:56:28;;;;;;;;;21.67;18.67;;;;;;;;5050179;28;45757;-77
2022/10/18 00:58:53;;;;;;;;;24.67;21.00;;;;;;;;5055188;28;46405;-76
2022/10/18 01:01:18;;;;;;;;;22.00;18.33;;;;;;;;5055967;28;45671;-77
2022/10/18 01:03:44;;;;;;;;;18.67;18.67;;;;;;;;5050420;28;45599;-77
2022/10/18 01:06:09;;;;;;;;;21.00;19.00;;;;;;;;5048349;28;46483;-77
2022/10/18 01:08:34;;;;;;;;;23.33;18.00;;;;;;;;5041725;28;46452;-77
2022/10/18 01:11:18;;;;;;;;;21.00;19.00;;;;;;;;5051476;28;45427;-75
2022/10/18 01:13:46;;;;;;;;;18.33;18.00;;;;;;;;5029153;28;45804;-76
2022/10/18 01:16:27;;;;;;;;;20.67;17.00;;;;;;;;5041926;28;45810;-77
2022/10/18 01:18:59;;;;;;;;;25.33;21.67;;;;;;;;5054983;28;45653;-77
2022/10/18 01:21:33;;;;;;;;;20.33;18.33;;;;;;;;5043845;28;45560;-77
2022/10/18 01:23:58;;;;;;;;;22.33;20.33;;;;;;;;5055290;28;45527;-75
2022/10/18 01:26:24;;;;;;;;;21.00;17.67;;;;;;;;5048255;28;45356;-78
2022/10/18 01:28:52;;;;;;;;;21.00;20.00;;;;;;;;5023432;28;47589;-77
2022/10/18 01:31:20;;;;;;;;;17.67;16.00;;;;;;;;5050892;28;45506;-74
2022/10/18 01:33:49;;;;;;;;;20.33;17.67;;;;;;;;5075837;27;45591;-75
2022/10/18 01:36:21;;;;;;;;;17.67;16.67;;;;;;;;5067799;28;45575;-75
2022/10/18 01:38:48;;;;;;;;;20.67;19.67;;;;;;;;5069215;27;45731;-77
2022/10/18 01:41:15;;;;;;;;;22.33;20.33;;;;;;;;5081839;27;45485;-75
2022/10/18 01:43:41;;;;;;;;;19.67;17.67;;;;;;;;5087315;27;45941;-75
2022/10/18 01:46:07;;;;;;;;;21.00;19.00;;;;;;;;5050470;28;46992;-76
2022/10/18 01:48:33;;;;;;;;;21.67;20.33;;;;;;;;5078175;27;47070;-75
2022/10/18 01:50:58;;;;;;;;;23.67;18.67;;;;;;;;5051230;28;45361;-75
2022/10/18 01:53:28;;;;;;;;;20.00;17.33;;;;;;;;5053291;28;45933;-75
2022/10/18 01:55:59;;;;;;;;;17.00;15.33;;;;;;;;5088795;27;45461;-76
2022/10/18 01:58:31;;;;;;;;;22.67;22.67;;;;;;;;5094620;27;46316;-76
2022/10/18 02:01:06;;;;;;;;;26.67;21.00;;;;;;;;5083577;27;45616;-76
2022/10/18 02:03:33;;;;;;;;;27.00;24.00;;;;;;;;5067620;27;45446;-76
2022/10/18 02:06:19;;;;;;;;;20.00;18.00;;;;;;;;5076001;27;45410;-76
2022/10/18 02:09:01;;;;;;;;;24.33;20.67;;;;;;;;5066411;28;46232;-77
2022/10/18 02:11:28;;;;;;;;;24.00;20.33;;;;;;;;5055623;28;45531;-75
2022/10/18 02:14:04;;;;;;;;;21.00;21.00;;;;;;;;5058489;28;45387;-78
2022/10/18 02:16:50;;;;;;;;;23.00;19.67;;;;;;;;5054661;27;47352;-76
2022/10/18 02:19:24;;;;;;;;;22.33;21.00;;;;;;;;5066176;27;45784;-76
2022/10/18 02:21:51;;;;;;;;;25.67;22.00;;;;;;;;5056965;28;46655;-76
2022/10/18 02:24:17;;;;;;;;;26.00;23.67;;;;;;;;5078023;27;45399;-75
2022/10/18 02:26:42;;;;;;;;;24.00;20.67;;;;;;;;5081891;27;45735;-76
2022/10/18 02:29:08;;;;;;;;;29.33;27.67;;;;;;;;5049746;28;47651;-76
2022/10/18 02:31:36;;;;;;;;;23.00;20.67;;;;;;;;5057156;28;45759;-75
2022/10/18 02:34:06;;;;;;;;;25.67;24.00;;;;;;;;5047497;28;45412;-76
2022/10/18 02:36:33;;;;;;;;;31.00;30.33;;;;;;;;5060009;27;45790;-76
2022/10/18 02:39:02;;;;;;;;;29.00;22.33;;;;;;;;5071828;27;46415;-75
2022/10/18 02:41:29;;;;;;;;;27.33;23.00;;;;;;;;5075807;27;45802;-76
2022/10/18 02:43:55;;;;;;;;;29.33;26.00;;;;;;;;5071970;28;45331;-76
2022/10/18 02:46:20;;;;;;;;;37.00;25.00;;;;;;;;5073835;28;45731;-76
2022/10/18 02:48:46;;;;;;;;;26.00;24.33;;;;;;;;5071588;28;45427;-77
2022/10/18 02:51:11;;;;;;;;;25.00;23.67;;;;;;;;5053937;28;45408;-77
2022/10/18 02:53:36;;;;;;;;;27.33;25.00;;;;;;;;5067620;27;45927;-76
2022/10/18 02:56:02;;;;;;;;;28.33;26.33;;;;;;;;5071383;27;45584;-77
2022/10/18 02:58:27;;;;;;;;;40.00;31.00;;;;;;;;5058941;28;46991;-77
2022/10/18 03:00:53;;;;;;;;;31.67;26.67;;;;;;;;5068922;27;45689;-76
2022/10/18 03:03:19;;;;;;;;;33.00;25.67;;;;;;;;5055378;28;45450;-75
2022/10/18 03:05:47;;;;;;;;;29.00;25.00;;;;;;;;5070295;28;45541;-75
2022/10/18 03:08:12;;;;;;;;;31.67;24.67;;;;;;;;5075573;27;46837;-76
2022/10/18 03:10:38;;;;;;;;;28.33;25.67;;;;;;;;5064120;27;45343;-76
2022/10/18 03:13:03;;;;;;;;;29.67;26.00;;;;;;;;5069008;28;45410;-78
2022/10/18 03:15:28;;;;;;;;;33.67;28.00;;;;;;;;5051328;27;46810;-77
2022/10/18 03:17:53;;;;;;;;;33.67;25.00;;;;;;;;5049526;28;46109;-75
2022/10/18 03:20:19;;;;;;;;;37.33;30.33;;;;;;;;5077815;27;45810;-76
2022/10/18 03:22:44;;;;;;;;;27.67;26.67;;;;;;;;5059592;28;45457;-76
2022/10/18 03:25:09;;;;;;;;;26.00;24.33;;;;;;;;5070302;27;45490;-75
2022/10/18 03:27:35;;;;;;;;;30.67;25.33;;;;;;;;5062432;27;46454;-77
2022/10/18 03:30:00;;;;;;;;;27.67;25.33;;;;;;;;5083548;27;45711;-78
2022/10/18 03:32:25;;;;;;;;;32.67;27.33;;;;;;;;5068881;28;45522;-75
2022/10/18 03:34:51;;;;;;;;;37.00;29.33;;;;;;;;5082009;27;45477;-76
2022/10/18 03:37:16;;;;;;;;;34.00;28.33;;;;;;;;5073848;27;45720;-76
2022/10/18 03:39:41;;;;;;;;;26.00;22.00;;;;;;;;5064859;28;45428;-77
2022/10/18 03:42:06;;;;;;;;;32.67;25.67;;;;;;;;5055014;28;45622;-76
2022/10/18 03:44:32;;;;;;;;;30.00;25.33;;;;;;;;5081593;27;47470;-77
2022/10/18 03:46:57;;;;;;;;;29.67;19.67;;;;;;;;5070625;27;45500;-76
2022/10/18 03:49:22;;;;;;;;;31.33;27.00;;;;;;;;5053349;27;45912;-77
2022/10/18 03:51:47;;;;;;;;;37.67;33.00;;;;;;;;5064290;27;46125;-77
2022/10/18 03:54:13;;;;;;;;;24.33;22.67;;;;;;;;5069971;27;45551;-76
2022/10/18 03:56:41;;;;;;;;;32.00;26.00;;;;;;;;5070120;28;46335;-80
2022/10/18 03:59:07;;;;;;;;;21.33;16.33;;;;;;;;5082362;27;45509;-77
2022/10/18 04:01:32;;;;;;;;;33.00;29.33;;;;;;;;5064146;28;45731;-78
2022/10/18 04:03:57;;;;;;;;;25.67;23.67;;;;;;;;5069015;28;46489;-78
2022/10/18 04:06:23;;;;;;;;;29.67;27.33;;;;;;;;5060999;27;45347;-76
2022/10/18 04:08:48;;;;;;;;;25.00;21.67;;;;;;;;5062676;28;45721;-79
2022/10/18 04:11:13;;;;;;;;;36.33;27.67;;;;;;;;5067341;28;45445;-79
2022/10/18 04:13:39;;;;;;;;;22.00;21.67;;;;;;;;5057913;27;45778;-80
2022/10/18 04:16:04;;;;;;;;;24.33;21.33;;;;;;;;5071697;28;46499;-78
2022/10/18 04:18:29;;;;;;;;;23.33;22.00;;;;;;;;5060400;27;45340;-79
2022/10/18 04:20:55;;;;;;;;;41.67;35.33;;;;;;;;5058541;28;45730;-79
2022/10/18 04:23:20;;;;;;;;;28.00;25.00;;;;;;;;5059256;28;45667;-80
2022/10/18 04:25:45;;;;;;;;;25.00;23.33;;;;;;;;5070454;28;45727;-80
2022/10/18 04:28:15;;;;;;;;;24.00;21.00;;;;;;;;5067142;27;45560;-79
2022/10/18 04:30:41;;;;;;;;;23.67;19.67;;;;;;;;5076356;27;45753;-78
2022/10/18 04:33:07;;;;;;;;;33.33;25.00;;;;;;;;5055000;27;47047;-79
2022/10/18 04:35:32;;;;;;;;;34.33;25.00;;;;;;;;5075740;27;45973;-78
2022/10/18 04:37:57;;;;;;;;;26.00;22.33;;;;;;;;5066851;28;45720;-77
2022/10/18 04:40:22;;;;;;;;;22.33;18.00;;;;;;;;5070758;28;45346;-78
2022/10/18 04:42:48;;;;;;;;;45.00;36.00;;;;;;;;5079763;27;45612;-78
2022/10/18 04:45:13;;;;;;;;;26.33;23.00;;;;;;;;5067702;28;47051;-80
2022/10/18 04:47:38;;;;;;;;;30.33;25.00;;;;;;;;5069580;27;45609;-79
2022/10/18 04:50:04;;;;;;;;;20.33;18.33;;;;;;;;5083393;27;45603;-80
2022/10/18 04:52:30;;;;;;;;;26.33;23.33;;;;;;;;5070155;27;45820;-80
2022/10/18 04:54:55;;;;;;;;;56.00;40.33;;;;;;;;5070775;27;47185;-77
2022/10/18 04:57:20;;;;;;;;;31.67;24.67;;;;;;;;5080652;27;45443;-79
2022/10/18 04:59:46;;;;;;;;;25.67;23.33;;;;;;;;5070910;28;45529;-77
2022/10/18 05:02:15;;;;;;;;;30.00;25.33;;;;;;;;5061875;27;45859;-80
2022/10/18 05:04:40;;;;;;;;;27.67;24.67;;;;;;;;5052204;27;47482;-78
2022/10/18 05:07:08;;;;;;;;;22.67;20.00;;;;;;;;5077859;27;45643;-78
2022/10/18 05:09:34;;;;;;;;;29.33;24.67;;;;;;;;5086463;27;45622;-80
2022/10/18 05:11:59;;;;;;;;;23.33;19.00;;;;;;;;5081225;27;45442;-79
2022/10/18 05:14:24;;;;;;;;;24.67;22.67;;;;;;;;5055374;28;47522;-82
2022/10/18 05:16:50;;;;;;;;;29.67;24.00;;;;;;;;5049717;27;45464;-75
2022/10/18 05:19:16;;;;;;;;;23.67;20.67;;;;;;;;5054445;28;45508;-79
2022/10/18 05:21:42;;;;;;;;;23.67;20.67;;;;;;;;5066227;27;46699;-81
2022/10/18 05:27:03;;;;;;;;;24.67;23.33;;;;;;;;5056242;28;45404;-80
2022/10/18 05:29:29;;;;;;;;;21.67;21.67;;;;;;;;5076097;27;45436;-81
2022/10/18 05:31:55;;;;;;;;;24.00;21.33;;;;;;;;5080396;27;45551;-83
2022/10/18 05:34:21;;;;;;;;;20.00;19.00;;;;;;;;5073988;27;45793;-78
2022/10/18 05:39:44;;;;;;;;;19.67;18.67;;;;;;;;5052710;28;45534;-81
2022/10/18 05:42:16;;;;;;;;;23.33;20.33;;;;;;;;5054350;28;45657;-81
2022/10/18 05:48:11;;;;;;;;;22.67;20.00;;;;;;;;5072507;28;45500;-83
2022/10/18 05:50:36;;;;;;;;;21.67;16.33;;;;;;;;5060047;28;45202;-82
2022/10/18 05:53:04;;;;;;;;;11.00;10.33;;;;;;;;5079084;27;45792;-83
2022/10/18 05:55:30;;;;;;;;;21.67;18.00;;;;;;;;5077916;28;45882;-82
2022/10/18 05:58:07;;;;;;;;;17.67;17.33;;;;;;;;5079085;28;45606;-83
2022/10/18 06:00:42;;;;;;;;;20.33;16.67;;;;;;;;5093914;27;45764;-82
2022/10/18 06:03:14;;;;;;;;;21.00;16.67;;;;;;;;5047925;28;45641;-83
2022/10/18 06:08:55;;;;;;;;;22.33;18.00;;;;;;;;5061452;27;45063;-77
2022/10/18 06:11:41;;;;;;;;;20.33;19.33;;;;;;;;5071073;27;45398;-80
2022/10/18 06:14:10;;;;;;;;;21.67;17.67;;;;;;;;5075786;28;45571;-85
2022/10/18 06:16:38;;;;;;;;;21.33;18.33;;;;;;;;5071445;28;45313;-85
2022/10/18 06:19:07;;;;;;;;;18.67;16.33;;;;;;;;5075563;27;45530;-84
2022/10/18 06:21:33;;;;;;;;;19.00;15.67;;;;;;;;5076909;28;45513;-83
2022/10/18 06:23:58;;;;;;;;;11.67;11.67;;;;;;;;5079145;27;45452;-84
2022/10/18 06:26:25;;;;;;;;;16.33;13.33;;;;;;;;5076456;28;45923;-78
2022/10/18 06:29:14;;;;;;;;;13.00;13.00;;;;;;;;5070577;27;45436;-85
2022/10/18 06:31:39;;;;;;;;;14.00;12.67;;;;;;;;5060512;27;45410;-78
2022/10/18 06:34:04;;;;;;;;;19.67;17.33;;;;;;;;5079170;27;45485;-78
2022/10/18 06:36:30;;;;;;;;;11.33;9.67;;;;;;;;5077615;27;45630;-79
2022/10/18 06:39:29;;;;;;;;;14.00;11.33;;;;;;;;5086329;27;45431;-86
2022/10/18 06:45:02;;;;;;;;;19.67;15.33;;;;;;;;5055373;28;45461;-85
2022/10/18 06:47:57;;;;;;;;;13.33;12.00;;;;;;;;5051722;28;46867;-82
2022/10/18 06:50:45;;;;;;;;;12.67;12.67;;;;;;;;5066569;28;45660;-85
2022/10/18 06:53:16;;;;;;;;;17.00;15.67;;;;;;;;5055929;28;44907;-85
2022/10/18 06:55:45;;;;;;;;;19.33;18.33;;;;;;;;5057891;28;45615;-86
2022/10/18 06:58:19;;;;;;;;;17.67;14.00;;;;;;;;5066906;28;45764;-85
2022/10/18 07:00:46;;;;;;;;;17.67;16.00;;;;;;;;5084318;27;45873;-83
2022/10/18 07:03:52;;;;;;;;;14.33;13.67;;;;;;;;5068716;28;45407;-83
2022/10/18 07:12:53;;;;;;;;;17.33;16.33;;;;;;;;5003965;28;45500;-85
2022/10/18 07:44:11;;;;;;;;;23.33;15.67;;;;;;;;4809169;29;45464;-79
2022/10/18 07:46:37;;;;;;;;;13.67;13.33;;;;;;;;4813023;28;48374;-80
2022/10/18 07:49:02;;;;;;;;;34.67;32.00;;;;;;;;4985683;27;46484;-80
2022/10/18 07:51:29;;;;;;;;;13.00;12.00;;;;;;;;5068532;27;45727;-79
2022/10/18 07:53:55;;;;;;;;;16.00;15.75;;;;;;;;5064293;28;45656;-79
2022/10/18 07:56:20;;;;;;;;;19.33;16.67;;;;;;;;5078275;27;45426;-80
2022/10/18 07:58:47;;;;;;;;;16.33;15.00;;;;;;;;5078057;27;45397;-78
2022/10/18 08:01:13;;;;;;;;;20.33;16.33;;;;;;;;5054475;28;45533;-77
2022/10/18 08:03:39;;;;;;;;;16.67;14.00;;;;;;;;5049189;27;45848;-78
2022/10/18 08:06:07;;;;;;;;;14.67;12.33;;;;;;;;5074866;27;45821;-78
2022/10/18 08:08:33;;;;;;;;;13.67;13.67;;;;;;;;5068367;27;45762;-78
2022/10/18 08:11:02;;;;;;;;;11.25;11.25;;;;;;;;5047703;28;45878;-78
2022/10/18 08:13:28;;;;;;;;;16.00;13.00;;;;;;;;5059833;27;46087;-77
2022/10/18 08:15:58;;;;;;;;;12.00;11.75;;;;;;;;5063009;28;46998;-79
2022/10/18 08:18:23;;;;;;;;;13.50;13.50;;;;;;;;5055224;28;45591;-79
2022/10/18 08:20:49;;;;;;;;;11.75;11.50;;;;;;;;5084717;27;45717;-79
2022/10/18 08:23:14;;;;;;;;;14.33;12.67;;;;;;;;5068000;28;45453;-77
2022/10/18 08:25:40;;;;;;;;;15.25;12.75;;;;;;;;5050961;28;46016;-79
2022/10/18 08:28:06;;;;;;;;;13.75;11.25;;;;;;;;5053935;28;45679;-78
2022/10/18 08:30:34;;;;;;;;;10.50;10.50;;;;;;;;5066080;27;45367;-80
2022/10/18 08:33:00;;;;;;;;;13.50;10.50;;;;;;;;5070350;27;45414;-77
2022/10/18 08:35:26;;;;;;;;;12.50;9.25;;;;;;;;5074649;28;45647;-80
2022/10/18 08:37:52;;;;;;;;;14.75;10.00;;;;;;;;5073366;28;45546;-79
2022/10/18 08:40:17;;;;;;;;;11.50;9.00;;;;;;;;5083945;27;45465;-78
2022/10/18 08:43:01;;;;;;;;;12.25;10.75;;;;;;;;5086587;27;45511;-76
2022/10/18 08:45:27;;;;;;;;;11.50;8.50;;;;;;;;5072059;27;47032;-78
2022/10/18 08:47:56;;;;;;;;;14.00;9.00;;;;;;;;5055792;28;45281;-81
2022/10/18 08:50:24;;;;;;;;;11.00;9.75;;;;;;;;5084480;27;45838;-77
2022/10/18 08:52:49;;;;;;;;;12.50;10.00;;;;;;;;5047839;28;46184;-79
2022/10/18 08:55:19;;;;;;;;;14.75;11.00;;;;;;;;5082382;27;45820;-79
2022/10/18 08:57:45;;;;;;;;;10.00;9.50;;;;;;;;5075323;27;45798;-79
2022/10/18 09:00:21;;;;;;;;;12.00;11.00;;;;;;;;5066201;28;45849;-78
2022/10/18 09:02:54;;;;;;;;;12.25;11.50;;;;;;;;5075229;28;45752;-79
2022/10/18 09:05:25;;;;;;;;;12.25;11.25;;;;;;;;5059602;28;45515;-79
2022/10/18 09:08:11;;;;;;;;;9.67;9.33;;;;;;;;5077213;27;45473;-77
2022/10/18 09:10:48;;;;;;;;;12.67;11.33;;;;;;;;5005086;28;45572;-79
2022/10/18 09:13:32;;;;;;;;;10.00;10.00;;;;;;;;5064576;27;45842;-78
2022/10/18 09:16:03;;;;;;;;;5.25;4.00;;;;;;;;5070273;27;48002;-78
2022/10/18 09:18:31;;;;;;;;;6.75;5.50;;;;;;;;5071406;28;45299;-80
2022/10/18 09:20:57;;;;;;;;;12.25;10.75;;;;;;;;5075585;27;45379;-79
2022/10/18 09:23:22;;;;;;;;;11.00;11.00;;;;;;;;5074139;27;45864;-82
2022/10/18 09:25:51;;;;;;;;;9.33;7.33;;;;;;;;5057256;28;48297;-78
2022/10/18 09:28:22;;;;;;;;;12.67;11.33;;;;;;;;5085724;27;45587;-79
2022/10/18 09:30:54;;;;;;;;;13.75;12.75;;;;;;;;5058959;28;45488;-81
2022/10/18 09:33:37;;;;;;;;;15.75;12.25;;;;;;;;5076800;27;45925;-79
2022/10/18 09:36:07;;;;;;;;;14.33;11.67;;;;;;;;5058611;28;48372;-79
2022/10/18 09:38:44;;;;;;;;;16.33;15.33;;;;;;;;5061760;28;45863;-80
2022/10/18 09:41:14;;;;;;;;;16.25;13.50;;;;;;;;5073087;27;45498;-78
2022/10/18 09:43:47;;;;;;;;;17.50;15.50;;;;;;;;5054200;28;45516;-79
2022/10/18 09:46:15;;;;;;;;;13.25;10.25;;;;;;;;5050196;28;48164;-80
2022/10/18 09:49:03;;;;;;;;;13.75;13.00;;;;;;;;5056077;28;45376;-79
2022/10/18 09:51:35;;;;;;;;;10.75;10.75;;;;;;;;5068415;27;45506;-80
2022/10/18 09:54:15;;;;;;;;;14.00;12.00;;;;;;;;5076061;27;45477;-79
2022/10/18 09:56:47;;;;;;;;;13.50;11.75;;;;;;;;5066043;27;45790;-81
2022/10/18 09:59:26;;;;;;;;;12.00;11.25;;;;;;;;5067648;27;45376;-80
2022/10/18 10:01:52;;;;;;;;;9.50;9.50;;;;;;;;5068500;28;45811;-79
2022/10/18 10:04:22;;;;;;;;;13.00;10.50;;;;;;;;5063003;27;46221;-85
2022/10/18 10:06:49;;;;;;;;;9.00;7.25;;;;;;;;5063305;28;45443;-86
2022/10/18 10:09:16;;;;;;;;;9.50;4.75;;;;;;;;5079889;27;45476;-83
2022/10/18 10:11:48;;;;;;;;;6.00;6.00;;;;;;;;5074200;28;45517;-84
2022/10/18 10:14:21;;;;;;;;;5.00;5.00;;;;;;;;5073347;28;45607;-83
2022/10/18 10:16:51;;;;;;;;;9.00;7.25;;;;;;;;5077824;27;46866;-84
2022/10/18 10:19:22;;;;;;;;;10.00;9.00;;;;;;;;5084807;27;45509;-84
2022/10/18 10:21:50;;;;;;;;;12.75;10.00;;;;;;;;5074993;28;45395;-84
2022/10/18 10:24:20;;;;;;;;;8.75;7.50;;;;;;;;5069394;28;45500;-84
2022/10/18 10:27:06;;;;;;;;;8.50;8.50;;;;;;;;5055784;28;47290;-86
2022/10/18 10:29:47;;;;;;;;;7.00;7.00;;;;;;;;5060514;28;45408;-81
2022/10/18 10:32:16;;;;;;;;;8.50;7.25;;;;;;;;5057491;28;45584;-83
2022/10/18 10:34:42;;;;;;;;;5.00;5.00;;;;;;;;5067881;28;45806;-85
2022/10/18 10:37:27;;;;;;;;;3.75;3.25;;;;;;;;5064403;28;46198;-84
2022/10/18 10:40:16;;;;;;;;;7.50;6.25;;;;;;;;5047525;28;45825;-82
2022/10/18 10:43:17;;;;;;;;;5.00;5.00;;;;;;;;5050438;28;45455;-82
2022/10/18 10:45:55;;;;;;;;;8.00;7.00;;;;;;;;4971444;28;45580;-85
2022/10/18 10:48:21;;;;;;;;;6.00;6.00;;;;;;;;5047233;28;45911;-84
2022/10/18 10:50:49;;;;;;;;;8.00;7.75;;;;;;;;5058256;28;45688;-84
2022/10/18 10:53:28;;;;;;;;;8.00;6.00;;;;;;;;5058927;28;45468;-84
2022/10/18 10:55:55;;;;;;;;;8.25;8.00;;;;;;;;5058206;28;45569;-84
2022/10/18 10:58:24;;;;;;;;;6.25;6.25;;;;;;;;5051413;28;45735;-85
2022/10/18 11:00:57;;;;;;;;;14.25;12.50;;;;;;;;5058460;28;45487;-85
2022/10/18 11:03:23;;;;;;;;;9.25;8.25;;;;;;;;5040152;28;45570;-84
2022/10/18 11:05:51;;;;;;;;;7.50;7.50;;;;;;;;5056229;28;45462;-86
2022/10/18 11:08:25;;;;;;;;;5.50;5.50;;;;;;;;5059410;28;45377;-84
2022/10/18 11:11:03;;;;;;;;;9.50;7.25;;;;;;;;5055852;28;45713;-81
2022/10/18 11:13:47;;;;;;;;;9.00;6.50;;;;;;;;5039358;28;45568;-85
2022/10/18 11:16:21;;;;;;;;;8.75;8.75;;;;;;;;5065374;28;45605;-84
2022/10/18 11:18:56;;;;;;;;;6.00;6.00;;;;;;;;5066502;28;45770;-84
2022/10/18 11:21:24;;;;;;;;;7.25;6.00;;;;;;;;5039178;28;45501;-84
2022/10/18 11:23:49;;;;;;;;;7.00;7.00;;;;;;;;5073221;28;45381;-85
2022/10/18 11:26:27;;;;;;;;;7.00;5.00;;;;;;;;5079818;27;46593;-81
2022/10/18 11:29:11;;;;;;;;;3.50;3.50;;;;;;;;5063822;28;45555;-87
2022/10/18 11:31:36;;;;;;;;;5.00;5.00;;;;;;;;5046358;27;45454;-86
2022/10/18 11:34:18;;;;;;;;;5.25;5.25;;;;;;;;5091119;27;45426;-87
2022/10/18 11:36:49;;;;;;;;;7.25;6.00;;;;;;;;5075505;27;45460;-84
2022/10/18 11:39:15;;;;;;;;;4.50;4.50;;;;;;;;5069494;27;45867;-84
2022/10/18 11:41:46;;;;;;;;;2.00;2.00;;;;;;;;5062750;28;45818;-85
2022/10/18 11:44:22;;;;;;;;;7.00;5.00;;;;;;;;5074920;27;45458;-83
2022/10/18 11:47:02;;;;;;;;;8.75;5.50;;;;;;;;5053188;28;45454;-79
2022/10/18 11:49:32;;;;;;;;;5.00;5.00;;;;;;;;5074708;28;45966;-76
2022/10/18 11:52:16;;;;;;;;;6.00;6.00;;;;;;;;5073288;27;45482;-79
2022/10/18 11:55:04;;;;;;;;;5.25;5.00;;;;;;;;5094448;27;45437;-78
2022/10/18 11:57:35;;;;;;;;;4.75;3.75;;;;;;;;5057774;28;47111;-79
2022/10/18 12:00:01;;;;;;;;;6.00;5.00;;;;;;;;5070490;28;46426;-79
2022/10/18 12:02:38;;;;;;;;;4.50;3.50;;;;;;;;5077439;27;45400;-78
2022/10/18 12:05:06;;;;;;;;;4.25;4.25;;;;;;;;5076235;27;45340;-78
2022/10/18 12:07:34;;;;;;;;;4.00;4.00;;;;;;;;5083745;27;45259;-78
2022/10/18 12:10:02;;;;;;;;;3.00;3.00;;;;;;;;5084151;28;46479;-80
2022/10/18 12:12:40;;;;;;;;;3.25;3.25;;;;;;;;5074894;27;45412;-80
2022/10/18 12:15:12;;;;;;;;;3.00;3.00;;;;;;;;5076509;27;45359;-79
2022/10/18 12:17:43;;;;;;;;;2.00;2.00;;;;;;;;5080622;27;45332;-79
2022/10/18 12:20:32;;;;;;;;;2.50;2.50;;;;;;;;5056571;27;46982;-78
2022/10/18 12:22:57;;;;;;;;;1.50;1.50;;;;;;;;5060863;28;45466;-79
2022/10/18 12:25:24;;;;;;;;;3.75;2.00;;;;;;;;5072764;27;45443;-78
2022/10/18 12:27:58;;;;;;;;;2.00;2.00;;;;;;;;5059960;28;45764;-79
2022/10/18 12:30:44;;;;;;;;;4.00;1.00;;;;;;;;5081594;27;47296;-78
2022/10/18 12:33:16;;;;;;;;;2.00;2.00;;;;;;;;5065155;27;45403;-79
2022/10/18 12:36:07;;;;;;;;;2.00;2.00;;;;;;;;5087945;27;45508;-80
2022/10/18 12:38:37;;;;;;;;;1.00;1.00;;;;;;;;5060597;27;45611;-80
2022/10/18 12:41:03;;;;;;;;;1.25;1.25;;;;;;;;5055795;28;45816;-79
2022/10/18 12:43:35;;;;;;;;;2.00;2.00;;;;;;;;5076500;28;45515;-79
2022/10/18 12:46:02;;;;;;;;;1.25;1.25;;;;;;;;5063974;27;45297;-78
2022/10/18 12:48:37;;;;;;;;;1.00;1.00;;;;;;;;5059203;28;45611;-79
2022/10/18 12:51:05;;;;;;;;;1.00;1.00;;;;;;;;5076969;27;45470;-79
2022/10/18 12:53:32;;;;;;;;;1.25;0.50;;;;;;;;5073777;27;45426;-78
2022/10/18 12:56:16;;;;;;;;;1.00;1.00;;;;;;;;5073161;28;45295;-78
2022/10/18 12:58:41;;;;;;;;;1.50;1.00;;;;;;;;5057620;28;45629;-78
2022/10/18 13:01:07;;;;;;;;;1.25;1.25;;;;;;;;5078436;28;45379;-77
2022/10/18 13:03:40;;;;;;;;;1.00;1.00;;;;;;;;5091944;27;45385;-78
2022/10/18 13:06:06;;;;;;;;;2.00;2.00;;;;;;;;5073727;27;45602;-77
2022/10/18 13:08:37;;;;;;;;;1.75;1.75;;;;;;;;5111716;27;45709;-79
2022/10/18 13:11:11;;;;;;;;;2.25;1.75;;;;;;;;5066944;27;45464;-78
2022/10/18 13:13:55;;;;;;;;;1.25;1.25;;;;;;;;5058490;27;45891;-79
2022/10/18 13:16:39;;;;;;;;;2.00;2.00;;;;;;;;5077391;27;45491;-78
2022/10/18 13:19:28;;;;;;;;;2.00;2.00;;;;;;;;5076518;28;45550;-76
2022/10/18 13:21:53;;;;;;;;;2.50;2.50;;;;;;;;5075022;27;47708;-78
2022/10/18 13:24:32;;;;;;;;;2.50;2.00;;;;;;;;5067133;27;45554;-79
2022/10/18 13:27:14;;;;;;;;;1.00;1.00;;;;;;;;5060593;28;45527;-80
2022/10/18 13:30:04;;;;;;;;;2.50;1.00;;;;;;;;5071213;28;45453;-78
2022/10/18 13:32:48;;;;;;;;;1.00;1.00;;;;;;;;5083334;27;45411;-80
2022/10/18 13:35:32;;;;;;;;;3.00;2.00;;;;;;;;5053149;28;45404;-79
2022/10/18 13:38:00;;;;;;;;;3.00;3.00;;;;;;;;5070775;27;45480;-79
2022/10/18 13:40:26;;;;;;;;;4.00;3.00;;;;;;;;5053540;28;46677;-79
2022/10/18 13:42:51;;;;;;;;;2.75;2.75;;;;;;;;5050593;28;45785;-79
2022/10/18 13:45:26;;;;;;;;;2.75;2.75;;;;;;;;5057922;28;45895;-80
2022/10/18 13:47:51;;;;;;;;;3.25;3.25;;;;;;;;5060712;28;46320;-80
2022/10/18 13:50:23;;;;;;;;;1.00;1.00;;;;;;;;5075338;27;45447;-80
2022/10/18 13:53:07;;;;;;;;;2.00;1.00;;;;;;;;5054241;28;45985;-80
2022/10/18 13:55:52;;;;;;;;;2.00;2.00;;;;;;;;5047748;28;45858;-78
2022/10/18 13:58:20;;;;;;;;;1.25;1.00;;;;;;;;5082768;27;45412;-80
2022/10/18 14:00:53;;;;;;;;;2.75;2.75;;;;;;;;5070160;28;45789;-77
2022/10/18 14:03:28;;;;;;;;;2.75;2.00;;;;;;;;5052594;28;45525;-81
2022/10/18 14:06:16;;;;;;;;;3.00;3.00;;;;;;;;5065004;27;45755;-82
2022/10/18 14:08:45;;;;;;;;;3.00;3.00;;;;;;;;5072870;27;45411;-79
2022/10/18 14:11:21;;;;;;;;;2.00;2.00;;;;;;;;5070980;28;45716;-80
2022/10/18 14:13:46;;;;;;;;;2.25;2.25;;;;;;;;5081719;27;45532;-80
2022/10/18 14:16:26;;;;;;;;;1.00;1.00;;;;;;;;5080832;27;45405;-79
2022/10/18 14:18:55;;;;;;;;;2.00;2.00;;;;;;;;5063767;27;45809;-80
2022/10/18 14:21:25;;;;;;;;;3.75;2.25;;;;;;;;5070455;27;45518;-80
2022/10/18 14:23:52;;;;;;;;;2.00;2.00;;;;;;;;5065013;28;47904;-82
2022/10/18 14:26:18;;;;;;;;;2.00;2.00;;;;;;;;5073970;27;45900;-82
2022/10/18 14:28:44;;;;;;;;;2.00;2.00;;;;;;;;5080052;27;45907;-80
2022/10/18 14:31:27;;;;;;;;;4.00;3.50;;;;;;;;5070053;28;45932;-79
2022/10/18 14:33:54;;;;;;;;;2.00;2.00;;;;;;;;5052992;28;46287;-80
2022/10/18 14:36:19;;;;;;;;;3.00;2.00;;;;;;;;5077172;27;45503;-80
2022/10/18 14:39:03;;;;;;;;;2.75;2.75;;;;;;;;5088548;27;45516;-81
2022/10/18 14:41:31;;;;;;;;;3.25;3.25;;;;;;;;5035348;28;46158;-80
2022/10/18 14:44:16;;;;;;;;;1.00;1.00;;;;;;;;5080603;27;45375;-80
2022/10/18 14:46:46;;;;;;;;;2.00;2.00;;;;;;;;5064918;28;45830;-81
2022/10/18 14:49:12;;;;;;;;;4.00;4.00;;;;;;;;5058750;28;45530;-86
2022/10/18 14:51:42;;;;;;;;;3.00;3.00;;;;;;;;5080016;27;45468;-86
2022/10/18 14:54:15;;;;;;;;;1.50;1.50;;;;;;;;5081489;27;45392;-85
2022/10/18 14:56:44;;;;;;;;;4.50;3.00;;;;;;;;5062108;28;45363;-84
2022/10/18 14:59:36;;;;;;;;;3.00;3.00;;;;;;;;5062991;28;45515;-83
2022/10/18 15:02:22;;;;;;;;;3.00;3.00;;;;;;;;5074059;27;45609;-85
2022/10/18 15:04:53;;;;;;;;;1.50;1.50;;;;;;;;5061202;28;45543;-85
2022/10/18 15:07:27;;;;;;;;;3.25;3.00;;;;;;;;5070463;27;45634;-85
2022/10/18 15:09:54;;;;;;;;;4.00;2.25;;;;;;;;5070081;28;45786;-87
2022/10/18 15:12:20;;;;;;;;;4.25;3.50;;;;;;;;5066007;28;44954;-84
2022/10/18 15:14:49;;;;;;;;;2.50;2.50;;;;;;;;5090444;28;45532;-84
2022/10/18 15:17:30;;;;;;;;;5.00;3.25;;;;;;;;5110268;27;45398;-81
2022/10/18 15:20:23;;;;;;;;;4.00;2.25;;;;;;;;5108198;27;45558;-84
2022/10/18 15:22:49;;;;;;;;;2.00;2.00;;;;;;;;5077778;27;45429;-85
2022/10/18 15:25:34;;;;;;;;;1.50;1.50;;;;;;;;5068681;28;45312;-83
2022/10/18 15:28:00;;;;;;;;;2.50;2.00;;;;;;;;5089432;28;44748;-84
2022/10/18 15:30:46;;;;;;;;;3.25;3.00;;;;;;;;5072827;28;45359;-84
2022/10/18 15:33:22;;;;;;;;;4.00;4.00;;;;;;;;5051132;28;45670;-83
2022/10/18 15:35:54;;;;;;;;;5.00;4.25;;;;;;;;5065658;28;45528;-85